Terminal Aerodrome Forecast
Issued by NWS

Home | Current Version | Previous Version | Text Only | Print | Product List | Glossary Off
Versions: 1 2 3 4 5 6 7 8 9 10 11 12 13 14 15 16 17

000
FTUS43 KGRB 271124
TAFRHI
TAF
KRHI 271124Z 2712/2812 35003KT P6SM OVC003
      TEMPO 2712/2715 3SM -SHRA BR SCT003 OVC014
     FM271500 01003KT P6SM OVC006
     FM271700 02003KT P6SM OVC014
     FM280500 VRB03KT P6SM SCT017
     FM280800 VRB03KT 2SM BR SCT016=

USA.gov is the U.S. government's official web portal to all federal, state and local government web resources and services.